createdAt,value
2022-08-01T00:00:59.186Z,82.75
2022-08-01T00:01:59.184Z,82.75
2022-08-01T00:02:59.219Z,82.56
2022-08-01T00:03:59.161Z,82.79
2022-08-01T00:04:59.141Z,82.89
2022-08-01T00:05:59.140Z,83.09
2022-08-01T00:06:59.119Z,83.09
2022-08-01T00:07:59.114Z,83.29
2022-08-01T00:08:59.106Z,83.29
2022-08-01T00:09:59.104Z,83.19
2022-08-01T00:10:59.084Z,83.39
2022-08-01T00:11:59.070Z,83.53
2022-08-01T00:12:59.058Z,83.63
2022-08-01T00:13:59.046Z,83.73
2022-08-01T00:14:59.058Z,83.83
2022-08-01T00:15:59.033Z,83.93
2022-08-01T00:16:59.055Z,83.83
2022-08-01T00:17:59.050Z,83.59
2022-08-01T00:18:58.993Z,83.63
2022-08-01T00:19:58.984Z,83.49
2022-08-01T00:20:59.011Z,83.49
2022-08-01T00:21:58.986Z,83.53
2022-08-01T00:22:58.953Z,83.73
2022-08-01T00:23:58.950Z,83.83
2022-08-01T00:24:58.930Z,83.63
2022-08-01T00:25:58.918Z,83.93
2022-08-01T00:26:58.914Z,83.93
2022-08-01T00:27:58.901Z,83.39
2022-08-01T00:28:58.945Z,83.29
2022-08-01T00:29:58.877Z,83.49
2022-08-01T00:30:58.866Z,83.09
2022-08-01T00:31:58.866Z,83.53
2022-08-01T00:32:58.847Z,83.53
2022-08-01T00:33:58.860Z,83.63
2022-08-01T00:34:58.864Z,83.59
2022-08-01T00:35:58.829Z,83.29
2022-08-01T00:36:58.805Z,83.29
2022-08-01T00:37:58.788Z,83.09
2022-08-01T00:38:58.781Z,82.69
2022-08-01T00:39:58.767Z,82.59
2022-08-01T00:40:58.760Z,82.79
2022-08-01T00:41:58.748Z,82.69
2022-08-01T00:42:58.738Z,82.89
2022-08-01T00:43:58.728Z,83
2022-08-01T00:44:58.747Z,82.89
2022-08-01T00:45:58.701Z,83
2022-08-01T00:46:58.688Z,83.13
2022-08-01T00:47:58.680Z,83.33
2022-08-01T00:48:58.668Z,83.53
2022-08-01T00:49:58.669Z,83.63
2022-08-01T00:50:58.661Z,83.43
2022-08-01T00:51:58.638Z,83.33
2022-08-01T00:52:58.623Z,83.23
2022-08-01T00:53:58.615Z,83.43
2022-08-01T00:54:58.604Z,83.23
2022-08-01T00:55:58.595Z,83.33
2022-08-01T00:56:58.589Z,83.09
2022-08-01T00:57:58.581Z,83
2022-08-01T00:58:58.563Z,82.79
2022-08-01T00:59:58.550Z,82.59
2022-08-01T01:00:58.542Z,82.56
2022-08-01T01:01:58.541Z,82.15
2022-08-01T01:02:58.519Z,82.2
2022-08-01T01:03:58.509Z,82.2
2022-08-01T01:04:58.501Z,82.06
2022-08-01T01:05:58.491Z,82.29
2022-08-01T01:06:58.480Z,82.59
2022-08-01T01:07:58.470Z,82.39
2022-08-01T01:08:58.455Z,82.5
2022-08-01T01:09:58.442Z,82.73
2022-08-01T01:10:58.432Z,83.23
2022-08-01T01:11:58.421Z,83.53
2022-08-01T01:12:58.409Z,83.63
2022-08-01T01:13:58.404Z,83.43
2022-08-01T01:14:58.396Z,83.23
2022-08-01T01:15:58.380Z,83.23
2022-08-01T01:16:58.363Z,82.93
2022-08-01T01:17:58.355Z,83.23
2022-08-01T01:18:58.347Z,82.83
2022-08-01T01:19:58.334Z,82.93
2022-08-01T01:20:58.329Z,82.83
2022-08-01T01:21:58.316Z,83.13
2022-08-01T01:22:58.313Z,83.07
2022-08-01T01:23:58.289Z,83.03
2022-08-01T01:24:58.283Z,82.64
2022-08-01T01:25:58.270Z,82.64
2022-08-01T01:26:58.261Z,82.77
2022-08-01T01:27:58.247Z,82.77
2022-08-01T01:28:58.238Z,82.77
2022-08-01T01:29:58.236Z,82.47
2022-08-01T01:30:58.224Z,82.43
2022-08-01T01:31:58.206Z,82.34
2022-08-01T01:32:58.201Z,82.03
2022-08-01T01:33:58.185Z,81.63
2022-08-01T01:34:58.175Z,81.93
2022-08-01T01:35:58.169Z,81.43
2022-08-01T01:36:58.157Z,81.73
2022-08-01T01:37:58.155Z,81.93
2022-08-01T01:38:58.139Z,82.03
2022-08-01T01:39:58.141Z,81.93
2022-08-01T01:40:58.120Z,81.63
2022-08-01T01:41:58.108Z,81.2
2022-08-01T01:42:58.106Z,81.3
2022-08-01T01:43:58.076Z,80.6
2022-08-01T01:44:58.080Z,81.24
2022-08-01T01:45:58.058Z,81.54
2022-08-01T01:46:58.061Z,81.43
2022-08-01T01:47:58.039Z,81.43
2022-08-01T01:48:58.022Z,81.54
2022-08-01T01:49:58.011Z,81.34
2022-08-01T01:50:57.998Z,81.1
2022-08-01T01:51:57.996Z,81.2
2022-08-01T01:52:57.982Z,81.24
2022-08-01T01:53:57.972Z,81.34
2022-08-01T01:54:57.973Z,81.24
2022-08-01T01:55:57.949Z,81.73
2022-08-01T01:56:57.940Z,81.84
2022-08-01T01:57:57.934Z,81.54
2022-08-01T01:58:57.913Z,81.1
2022-08-01T01:59:57.900Z,81.54
2022-08-01T02:00:57.895Z,81.43
2022-08-01T02:01:57.884Z,81.63
2022-08-01T02:02:57.873Z,81.34
2022-08-01T02:03:57.856Z,81.43
2022-08-01T02:04:57.929Z,81.84
2022-08-01T02:05:57.844Z,82.37
2022-08-01T02:06:57.827Z,82.03
2022-08-01T02:07:57.824Z,82.03
2022-08-01T02:08:57.817Z,82.47
2022-08-01T02:09:57.798Z,82.43
2022-08-01T02:10:57.793Z,82.03
2022-08-01T02:11:57.775Z,82.37
2022-08-01T02:12:57.759Z,82.37
2022-08-01T02:13:57.753Z,82.43
2022-08-01T02:14:57.750Z,82.23
2022-08-01T02:15:57.745Z,81.93
2022-08-01T02:16:57.721Z,81.93
2022-08-01T02:17:57.706Z,82.07
2022-08-01T02:18:57.694Z,81.93
2022-08-01T02:19:57.684Z,81.84
2022-08-01T02:20:57.708Z,82.03
2022-08-01T02:21:57.713Z,82.17
2022-08-01T02:22:57.663Z,82.17
2022-08-01T02:23:57.642Z,82.17
2022-08-01T02:24:57.645Z,82.57
2022-08-01T02:25:57.622Z,82.67
2022-08-01T02:26:57.610Z,82.67
2022-08-01T02:27:57.646Z,82.47
2022-08-01T02:28:57.592Z,82.67
2022-08-01T02:29:57.575Z,82.37
2022-08-01T02:30:57.571Z,82.28
2022-08-01T02:31:57.556Z,81.98
2022-08-01T02:32:57.553Z,82.03
2022-08-01T02:33:57.535Z,81.54
2022-08-01T02:34:57.528Z,81.54
2022-08-01T02:35:57.522Z,81.1
2022-08-01T02:36:57.504Z,80.6
2022-08-01T02:37:57.601Z,80.3
2022-08-01T02:38:57.484Z,80.2
2022-08-01T02:39:57.468Z,80.6
2022-08-01T02:40:57.463Z,80.3
2022-08-01T02:41:57.454Z,80.5
2022-08-01T02:42:57.435Z,80.3
2022-08-01T02:43:57.437Z,80.1
2022-08-01T02:44:57.426Z,80.5
2022-08-01T02:45:57.406Z,80.4
2022-08-01T02:46:57.392Z,80.2
2022-08-01T02:47:57.384Z,80
2022-08-01T02:48:57.374Z,80
2022-08-01T02:49:57.361Z,80.54
2022-08-01T02:50:57.355Z,80.3
2022-08-01T02:51:57.345Z,80.1
2022-08-01T02:52:57.329Z,79.9
2022-08-01T02:53:57.322Z,79.7
2022-08-01T02:54:57.312Z,79.96
2022-08-01T02:55:57.299Z,79.9
2022-08-01T02:56:57.285Z,79.9
2022-08-01T02:57:57.279Z,79.8
2022-08-01T02:58:57.282Z,79.7
2022-08-01T02:59:57.257Z,80
2022-08-01T03:00:57.254Z,80
2022-08-01T03:01:57.263Z,79.9
2022-08-01T03:02:57.229Z,80.1
2022-08-01T03:03:57.208Z,80.54
2022-08-01T03:04:57.203Z,81.48
2022-08-01T03:05:57.195Z,81.57
2022-08-01T03:06:57.189Z,82.07
2022-08-01T03:07:57.179Z,82.47
2022-08-01T03:08:57.166Z,82.57
2022-08-01T03:09:57.151Z,82.67
2022-08-01T03:10:57.133Z,82.37
2022-08-01T03:11:57.130Z,82.91
2022-08-01T03:12:57.120Z,83.21
2022-08-01T03:13:57.112Z,83.21
2022-08-01T03:14:57.096Z,83.61
2022-08-01T03:15:57.081Z,83.11
2022-08-01T03:16:57.072Z,83.01
2022-08-01T03:17:57.061Z,83.11
2022-08-01T03:18:57.054Z,83.11
2022-08-01T03:19:57.039Z,82.91
2022-08-01T03:20:57.039Z,83.21
2022-08-01T03:21:57.019Z,83.01
2022-08-01T03:22:57.007Z,83.01
2022-08-01T03:23:57.003Z,82.91
2022-08-01T03:24:56.985Z,82.37
2022-08-01T03:25:56.973Z,82.28
2022-08-01T03:26:56.967Z,82.28
2022-08-01T03:27:56.951Z,82.37
2022-08-01T03:28:56.940Z,82.17
2022-08-01T03:29:56.929Z,82.17
2022-08-01T03:30:56.923Z,81.98
2022-08-01T03:31:56.910Z,82.37
2022-08-01T03:32:56.904Z,82.37
2022-08-01T03:33:56.891Z,82.17
2022-08-01T03:34:56.939Z,82.17
2022-08-01T03:35:56.872Z,81.98
2022-08-01T03:36:56.852Z,81.77
2022-08-01T03:38:56.832Z,82.28
2022-08-01T03:39:56.822Z,81.87
2022-08-01T03:40:56.823Z,81.54
2022-08-01T03:41:56.804Z,81.13
2022-08-01T03:42:56.791Z,81.34
2022-08-01T03:43:56.794Z,81.43
2022-08-01T03:44:56.775Z,81.54
2022-08-01T03:45:56.765Z,81.67
2022-08-01T03:46:56.747Z,81.73
2022-08-01T03:47:56.738Z,81.54
2022-08-01T03:48:56.727Z,81.54
2022-08-01T03:49:56.716Z,81.43
2022-08-01T03:50:56.703Z,81.34
2022-08-01T03:51:56.694Z,81.43
2022-08-01T03:52:56.688Z,81.13
2022-08-01T03:53:56.679Z,81.24
2022-08-01T03:54:56.658Z,81.43
2022-08-01T03:55:56.648Z,81.54
2022-08-01T03:56:56.636Z,81.34
2022-08-01T03:57:56.638Z,80.64
2022-08-01T03:58:56.632Z,80.83
2022-08-01T03:59:56.609Z,81.13
2022-08-01T04:00:56.599Z,81.34
2022-08-01T04:01:56.601Z,81.13
2022-08-01T04:02:56.579Z,81.04
2022-08-01T04:03:56.562Z,80.7
2022-08-01T04:04:56.560Z,81.13
2022-08-01T04:05:56.545Z,80.94
2022-08-01T04:06:56.531Z,80.7
2022-08-01T04:07:56.517Z,80.8
2022-08-01T04:08:56.510Z,80.6
2022-08-01T04:09:56.493Z,80.6
2022-08-01T04:10:56.488Z,80.74
2022-08-01T04:11:56.481Z,81.04
2022-08-01T04:12:56.465Z,81.34
2022-08-01T04:13:56.458Z,81.63
2022-08-01T04:14:56.450Z,81.37
2022-08-01T04:15:56.453Z,81.43
2022-08-01T04:16:56.425Z,81.54
2022-08-01T04:17:56.410Z,81.57
2022-08-01T04:18:56.397Z,81.43
2022-08-01T04:19:56.389Z,81.57
2022-08-01T04:20:56.379Z,81.77
2022-08-01T04:21:56.376Z,81.87
2022-08-01T04:22:56.354Z,81.98
2022-08-01T04:23:56.346Z,82.07
2022-08-01T04:24:56.349Z,81.77
2022-08-01T04:25:56.330Z,81.43
2022-08-01T04:26:56.313Z,81.13
2022-08-01T04:27:56.323Z,81.13
2022-08-01T04:28:56.316Z,80.94
2022-08-01T04:29:56.289Z,80.8
2022-08-01T04:30:56.284Z,80.4
2022-08-01T04:31:56.257Z,80.2
2022-08-01T04:32:56.249Z,80.4
2022-08-01T04:33:56.245Z,80.2
2022-08-01T04:34:56.230Z,80.3
2022-08-01T04:35:56.218Z,80.3
2022-08-01T04:36:56.206Z,80.2
2022-08-01T04:37:56.202Z,80
2022-08-01T04:38:56.185Z,80.1
2022-08-01T04:39:56.179Z,79.66
2022-08-01T04:40:56.186Z,79.36
2022-08-01T04:41:56.154Z,79.5
2022-08-01T04:42:56.145Z,79.9
2022-08-01T04:43:56.130Z,79.46
2022-08-01T04:44:56.128Z,79.57
2022-08-01T04:45:56.110Z,79.27
2022-08-01T04:46:56.110Z,79.46
2022-08-01T04:47:56.091Z,79.33
2022-08-01T04:48:56.101Z,79.46
2022-08-01T04:49:56.066Z,79.16
2022-08-01T04:50:56.054Z,79.16
2022-08-01T04:51:56.042Z,78.67
2022-08-01T04:52:56.039Z,79.27
2022-08-01T04:53:56.030Z,79.27
2022-08-01T04:54:56.010Z,79.7
2022-08-01T04:55:56.003Z,80
2022-08-01T04:56:56.000Z,80.24
2022-08-01T04:57:56.008Z,80.74
2022-08-01T04:58:55.966Z,80.68
2022-08-01T04:59:55.959Z,81.13
2022-08-01T05:00:55.960Z,80.83
2022-08-01T05:01:55.944Z,80.64
2022-08-01T05:02:55.935Z,80.54
2022-08-01T05:03:55.912Z,80.74
2022-08-01T05:04:55.906Z,80.54
2022-08-01T05:05:55.894Z,80.83
2022-08-01T05:06:55.886Z,80.54
2022-08-01T05:07:55.871Z,80.24
2022-08-01T05:08:55.894Z,80.34
2022-08-01T05:09:55.849Z,80.44
2022-08-01T05:10:55.852Z,80.3
2022-08-01T05:11:55.845Z,80.1
2022-08-01T05:12:55.820Z,80.54
2022-08-01T05:13:55.813Z,80.74
2022-08-01T05:14:55.819Z,80.94
2022-08-01T05:15:55.790Z,80.94
2022-08-01T05:16:55.771Z,80.83
2022-08-01T05:17:55.766Z,81.43
2022-08-01T05:18:55.756Z,81.24
2022-08-01T05:19:55.747Z,81.77
2022-08-01T05:20:55.743Z,81.77
2022-08-01T05:21:55.726Z,82.07
2022-08-01T05:22:55.728Z,82.17
2022-08-01T05:23:55.715Z,82.17
2022-08-01T05:24:55.690Z,82.17
2022-08-01T05:25:55.685Z,82.41
2022-08-01T05:26:55.674Z,82.47
2022-08-01T05:27:55.663Z,82.41
2022-08-01T05:28:55.649Z,82.71
2022-08-01T05:29:55.637Z,82.81
2022-08-01T05:30:55.658Z,82.91
2022-08-01T05:31:55.614Z,82.71
2022-08-01T05:32:55.605Z,82.81
2022-08-01T05:33:55.601Z,82.71
2022-08-01T05:34:55.583Z,82.81
2022-08-01T05:35:55.597Z,82.57
2022-08-01T05:36:55.559Z,82.28
2022-08-01T05:37:55.558Z,82.47
2022-08-01T05:38:55.537Z,81.98
2022-08-01T05:39:55.529Z,82.17
2022-08-01T05:40:55.521Z,82.17
2022-08-01T05:41:55.501Z,82.17
2022-08-01T05:42:55.508Z,82.37
2022-08-01T05:43:55.493Z,82.28
2022-08-01T05:44:55.473Z,81.98
2022-08-01T05:45:55.475Z,81.98
2022-08-01T05:46:55.464Z,81.93
2022-08-01T05:47:55.453Z,81.43
2022-08-01T05:48:55.439Z,81.3
2022-08-01T05:49:55.419Z,80.7
2022-08-01T05:50:55.409Z,81
2022-08-01T05:51:55.398Z,80.7
2022-08-01T05:52:55.390Z,80.8
2022-08-01T05:53:55.376Z,80.7
2022-08-01T05:54:55.361Z,80.7
2022-08-01T05:55:55.371Z,80.26
2022-08-01T05:56:55.364Z,80.26
2022-08-01T05:57:55.334Z,80.06
2022-08-01T05:58:55.323Z,80.16
2022-08-01T05:59:55.309Z,79.76
2022-08-01T06:00:55.297Z,80.16
2022-08-01T06:01:55.288Z,79.82
2022-08-01T06:02:55.285Z,79.52
2022-08-01T06:03:55.266Z,79.66
2022-08-01T06:04:55.259Z,79.96
2022-08-01T06:05:55.242Z,80.16
2022-08-01T06:06:55.244Z,80.16
2022-08-01T06:07:55.240Z,80.16
2022-08-01T06:08:55.221Z,79.76
2022-08-01T06:09:55.204Z,80.1
2022-08-01T06:10:55.188Z,80.5
2022-08-01T06:11:55.179Z,80.5
2022-08-01T06:12:55.173Z,80.66
2022-08-01T06:13:55.166Z,80.26
2022-08-01T06:14:55.154Z,79.76
2022-08-01T06:15:55.154Z,79.46
2022-08-01T06:16:55.132Z,79.46
2022-08-01T06:17:55.116Z,79.57
2022-08-01T06:18:55.106Z,78.73
2022-08-01T06:19:55.101Z,78.33
2022-08-01T06:20:55.090Z,78.09
2022-08-01T06:21:55.075Z,77.99
2022-08-01T06:22:55.065Z,77.93
2022-08-01T06:23:55.050Z,77.93
2022-08-01T06:24:55.041Z,77.99
2022-08-01T06:25:55.051Z,77.69
2022-08-01T06:26:55.025Z,77.5
2022-08-01T06:27:55.008Z,77.39
2022-08-01T06:28:55.008Z,77.5
2022-08-01T06:29:54.995Z,77.29
2022-08-01T06:30:54.984Z,77.53
2022-08-01T06:31:54.963Z,77.83
2022-08-01T06:32:54.962Z,77.83
2022-08-01T06:33:54.945Z,77.99
2022-08-01T06:34:54.936Z,77.39
2022-08-01T06:35:54.936Z,77.63
2022-08-01T06:36:54.924Z,77.73
2022-08-01T06:37:54.905Z,77.93
2022-08-01T06:38:54.895Z,77.53
2022-08-01T06:39:54.892Z,77.5
2022-08-01T06:40:54.880Z,77
2022-08-01T06:41:54.861Z,77.09
2022-08-01T06:42:54.868Z,76.9
2022-08-01T06:43:54.836Z,76.9
2022-08-01T06:44:54.830Z,77.2
2022-08-01T06:45:54.831Z,77.53
2022-08-01T06:46:54.811Z,77.73
2022-08-01T06:47:54.792Z,77.83
2022-08-01T06:48:54.786Z,77.53
2022-08-01T06:49:54.770Z,77.63
2022-08-01T06:50:54.757Z,77.43
2022-08-01T06:51:54.753Z,77.13
2022-08-01T06:52:54.743Z,77.33
2022-08-01T06:53:54.728Z,77.13
2022-08-01T06:54:54.717Z,77.09
2022-08-01T06:55:54.710Z,76.9
2022-08-01T06:56:54.693Z,76.66
2022-08-01T06:57:54.722Z,76.03
2022-08-01T06:58:54.674Z,75.79
2022-08-01T06:59:54.673Z,75.26
2022-08-01T07:00:54.657Z,74.26
2022-08-01T07:01:54.637Z,74.3
2022-08-01T07:02:54.631Z,74.6
2022-08-01T07:03:54.653Z,74.46
2022-08-01T07:04:54.616Z,73.47
2022-08-01T07:05:54.599Z,73.57
2022-08-01T07:06:54.589Z,74.33
2022-08-01T07:07:54.579Z,73.33
2022-08-01T07:08:54.568Z,73.33
2022-08-01T07:09:54.559Z,73.27
2022-08-01T07:10:54.541Z,73.9
2022-08-01T07:11:54.530Z,74.43
2022-08-01T07:12:54.522Z,74.63
2022-08-01T07:13:54.512Z,75.03
2022-08-01T07:14:54.512Z,75.67
2022-08-01T07:15:54.489Z,75.53
2022-08-01T07:16:54.481Z,75.37
2022-08-01T07:17:54.469Z,75.03
2022-08-01T07:18:54.470Z,74.93
2022-08-01T07:19:54.445Z,75.73
2022-08-01T07:20:54.444Z,75.63
2022-08-01T07:21:54.426Z,75.93
2022-08-01T07:22:54.420Z,76.39
2022-08-01T07:23:54.408Z,75.56
2022-08-01T07:24:54.392Z,74.52
2022-08-01T07:25:54.388Z,73.83
2022-08-01T07:26:54.370Z,73.14
2022-08-01T07:27:54.362Z,73.4
2022-08-01T07:28:54.348Z,72.9
2022-08-01T07:29:54.341Z,72.74
2022-08-01T07:30:54.335Z,72.74
2022-08-01T07:31:54.335Z,72.34
2022-08-01T07:32:54.305Z,72.41
2022-08-01T07:33:54.295Z,71.51
2022-08-01T07:34:54.301Z,71.31
2022-08-01T07:35:54.388Z,71.51
2022-08-01T07:36:54.263Z,71.25
2022-08-01T07:37:54.260Z,69.79
2022-08-01T07:38:54.315Z,70.22
2022-08-01T07:39:54.230Z,70.32
2022-08-01T07:40:54.219Z,70.02
2022-08-01T07:41:54.207Z,70.32
2022-08-01T07:42:54.200Z,71.01
2022-08-01T07:43:54.189Z,71.22
2022-08-01T07:44:54.209Z,70.78
2022-08-01T07:45:54.176Z,69.99
2022-08-01T07:46:54.161Z,69.99
2022-08-01T07:47:54.151Z,69.99
2022-08-01T07:48:54.141Z,69.46
2022-08-01T07:49:54.132Z,68.93
2022-08-01T07:50:54.109Z,68.27
2022-08-01T07:51:54.107Z,68.37
2022-08-01T07:52:54.095Z,68.37
2022-08-01T07:53:54.099Z,68.13
2022-08-01T07:54:54.079Z,67.47
2022-08-01T07:55:54.061Z,66.52
2022-08-01T07:56:54.068Z,65.47
2022-08-01T07:57:54.056Z,63.85
2022-08-01T07:58:54.032Z,63.95
2022-08-01T07:59:54.026Z,63.2
2022-08-01T08:00:54.009Z,61.56
2022-08-01T08:01:53.995Z,60.54
2022-08-01T08:02:54.000Z,59.53
2022-08-01T08:03:53.974Z,59.2
2022-08-01T08:04:53.965Z,58.25
2022-08-01T08:05:53.958Z,57.95
2022-08-01T08:06:53.940Z,58.25
2022-08-01T08:07:53.935Z,58.77
2022-08-01T08:08:53.954Z,59.88
2022-08-01T08:09:53.910Z,59.78
2022-08-01T08:10:53.903Z,60.43
2022-08-01T08:11:53.889Z,62.1
2022-08-01T08:12:53.885Z,63.39
2022-08-01T08:13:53.864Z,64.37
2022-08-01T08:14:53.859Z,64.44
2022-08-01T08:15:53.847Z,64.04
2022-08-01T08:16:53.832Z,64.77
2022-08-01T08:17:53.828Z,64.67
2022-08-01T08:18:53.813Z,63.88
2022-08-01T08:19:53.801Z,65
2022-08-01T08:20:53.816Z,65.62
2022-08-01T08:21:53.777Z,66.68
2022-08-01T08:22:53.772Z,67.47
2022-08-01T08:23:53.820Z,67.57
2022-08-01T08:24:53.746Z,67.84
2022-08-01T08:25:53.746Z,66.82
2022-08-01T08:26:53.728Z,66.25
2022-08-01T08:27:53.717Z,66.85
2022-08-01T08:28:53.708Z,67.14
2022-08-01T08:29:53.690Z,66.94
2022-08-01T08:30:53.679Z,66.49
2022-08-01T08:31:53.736Z,66.32
2022-08-01T08:32:53.671Z,66.25
2022-08-01T08:33:53.676Z,66.05
2022-08-01T08:34:53.641Z,65.62
2022-08-01T08:35:53.629Z,65.03
2022-08-01T08:36:53.618Z,64.87
2022-08-01T08:37:53.601Z,63.45
2022-08-01T08:38:53.593Z,62.73
2022-08-01T08:39:53.579Z,62.4
2022-08-01T08:40:53.584Z,62.1
2022-08-01T08:41:53.558Z,62.66
2022-08-01T08:42:53.550Z,61.05
2022-08-01T08:43:53.579Z,61.35
2022-08-01T08:44:53.535Z,61.48
2022-08-01T08:45:53.519Z,62.13
2022-08-01T08:46:53.555Z,63.28
2022-08-01T08:47:53.514Z,64.5
2022-08-01T08:48:53.479Z,64.93
2022-08-01T08:49:53.474Z,65.66
2022-08-01T08:50:53.462Z,65.46
2022-08-01T08:51:53.478Z,65.33
2022-08-01T08:52:53.440Z,65.26
2022-08-01T08:53:53.474Z,62.93
2022-08-01T08:54:53.425Z,63.39
2022-08-01T08:55:53.492Z,62.4
2022-08-01T08:56:53.399Z,62.99
2022-08-01T08:57:53.407Z,62.17
2022-08-01T08:58:54.744Z,61.65
2022-08-01T08:59:53.375Z,60.93
2022-08-01T09:00:54.045Z,61.65
2022-08-01T09:01:53.345Z,61.25
2022-08-01T09:02:53.332Z,61.65
2022-08-01T09:03:53.322Z,61.16
2022-08-01T09:04:53.314Z,61.41
2022-08-01T09:05:53.303Z,62.93
2022-08-01T09:06:53.299Z,62.99
2022-08-01T09:07:53.283Z,62.93
2022-08-01T09:08:53.301Z,63.75
2022-08-01T09:09:53.262Z,63.45
2022-08-01T09:10:53.248Z,63.02
2022-08-01T09:11:53.237Z,62.46
2022-08-01T09:12:53.251Z,62.85
2022-08-01T09:13:53.221Z,62.63
2022-08-01T09:14:53.204Z,63.02
2022-08-01T09:15:53.191Z,62.07
2022-08-01T09:16:53.206Z,61.29
2022-08-01T09:17:53.177Z,61.25
2022-08-01T09:18:53.165Z,61.05
2022-08-01T09:19:53.161Z,60.99
2022-08-01T09:20:53.147Z,60.99
2022-08-01T09:21:53.399Z,61.18
2022-08-01T09:22:53.128Z,60.99
2022-08-01T09:23:53.108Z,60.96
2022-08-01T09:24:53.101Z,60.56
2022-08-01T09:25:53.101Z,60.49
2022-08-01T09:26:53.091Z,60.27
2022-08-01T09:27:53.067Z,60.11
2022-08-01T09:28:53.080Z,59.09
2022-08-01T09:29:53.257Z,58.37
2022-08-01T09:30:53.032Z,57.43
2022-08-01T09:31:53.020Z,56.25
2022-08-01T09:32:53.009Z,56.84
2022-08-01T09:33:53.017Z,56.52
2022-08-01T09:34:52.996Z,55.87
2022-08-01T09:35:52.982Z,55.48
2022-08-01T09:36:52.971Z,54.14
2022-08-01T09:37:52.989Z,54.64
2022-08-01T09:38:52.952Z,53.63
2022-08-01T09:39:52.943Z,53.19
2022-08-01T09:40:52.925Z,51.72
2022-08-01T09:41:52.936Z,50.98
2022-08-01T09:42:52.917Z,50.46
2022-08-01T09:43:52.900Z,50.59
2022-08-01T09:44:52.888Z,51.29
2022-08-01T09:45:52.881Z,51.52
2022-08-01T09:46:52.863Z,51.62
2022-08-01T09:47:52.859Z,51.29
2022-08-01T09:48:52.894Z,50.49
2022-08-01T09:49:52.846Z,50.34
2022-08-01T09:50:52.828Z,51.54
2022-08-01T09:51:52.829Z,51.93
2022-08-01T09:52:52.801Z,52.13
2022-08-01T09:53:52.789Z,52.03
2022-08-01T09:54:52.780Z,52.03
2022-08-01T09:55:52.859Z,51.64
2022-08-01T09:56:52.776Z,51.29
2022-08-01T09:57:52.750Z,51.07
2022-08-01T09:58:52.746Z,50.59
2022-08-01T09:59:52.725Z,51.52
2022-08-01T10:00:52.737Z,51.91
2022-08-01T10:01:52.720Z,52.03
2022-08-01T10:02:52.711Z,53.58
2022-08-01T10:03:52.681Z,54.2
2022-08-01T10:04:52.679Z,54.2
2022-08-01T10:05:52.676Z,54.2
2022-08-01T10:06:52.653Z,54.22
2022-08-01T10:07:52.641Z,54.52
2022-08-01T10:08:52.636Z,54.52
2022-08-01T10:09:52.643Z,54.22
2022-08-01T10:10:52.616Z,54.62
2022-08-01T10:11:52.621Z,55.14
2022-08-01T10:12:52.644Z,55.21
2022-08-01T10:13:52.576Z,54.82
2022-08-01T10:14:52.586Z,54.37
2022-08-01T10:15:52.552Z,53.23
2022-08-01T10:16:52.551Z,53.09
2022-08-01T10:17:52.539Z,53.39
2022-08-01T10:18:52.519Z,54.05
2022-08-01T10:19:52.517Z,55.71
2022-08-01T10:20:52.527Z,56.01
2022-08-01T10:21:52.491Z,55.22
2022-08-01T10:22:52.479Z,54.38
2022-08-01T10:23:52.517Z,54.25
2022-08-01T10:24:52.463Z,54.47
2022-08-01T10:25:52.449Z,55.51
2022-08-01T10:26:52.438Z,55.81
2022-08-01T10:27:52.566Z,55.68
2022-08-01T10:28:52.416Z,55.39
2022-08-01T10:29:52.404Z,55.22
2022-08-01T10:30:52.395Z,55.95
2022-08-01T10:31:52.386Z,53.93
2022-08-01T10:32:52.385Z,52.6
2022-08-01T10:33:52.373Z,52.25
2022-08-01T10:34:52.358Z,51.12
2022-08-01T10:35:52.374Z,50.61
2022-08-01T10:36:52.331Z,50.63
2022-08-01T10:37:52.347Z,51.47
2022-08-01T10:38:52.313Z,52.99
2022-08-01T10:39:52.351Z,53.51
2022-08-01T10:40:52.291Z,53.83
2022-08-01T10:41:52.280Z,54.43
2022-08-01T10:42:52.278Z,54.43
2022-08-01T10:43:52.260Z,54.45
2022-08-01T10:44:52.262Z,54.16
2022-08-01T10:45:52.238Z,54.35
2022-08-01T10:46:52.227Z,54.99
2022-08-01T10:47:52.225Z,55.91
2022-08-01T10:48:52.214Z,56.3
2022-08-01T10:49:52.195Z,56.1
2022-08-01T10:50:52.184Z,56.21
2022-08-01T10:51:52.196Z,56.04
2022-08-01T10:52:52.174Z,55.54
2022-08-01T10:53:52.151Z,55.22
2022-08-01T10:54:52.142Z,54.57
2022-08-01T10:55:52.140Z,53.83
2022-08-01T10:56:52.129Z,51.47
2022-08-01T10:57:52.119Z,49.92
2022-08-01T10:58:52.100Z,48.8
2022-08-01T10:59:52.087Z,47.26
2022-08-01T11:00:52.090Z,46.94
2022-08-01T11:01:52.068Z,45.53
2022-08-01T11:02:52.062Z,46.14
2022-08-01T11:03:52.051Z,46.06
2022-08-01T11:04:52.037Z,46.33
2022-08-01T11:05:52.027Z,46.01
2022-08-01T11:06:52.029Z,47.33
2022-08-01T11:07:52.009Z,48.6
2022-08-01T11:08:51.992Z,50.16
2022-08-01T11:09:51.985Z,51.3
2022-08-01T11:10:51.979Z,51.81
2022-08-01T11:11:51.987Z,52.21
2022-08-01T11:12:51.945Z,52.01
2022-08-01T11:13:51.934Z,51.57
2022-08-01T11:14:51.934Z,50.22
2022-08-01T11:15:51.933Z,48.3
2022-08-01T11:16:51.918Z,46.97
2022-08-01T11:17:51.891Z,46.77
2022-08-01T11:18:51.960Z,47.5
2022-08-01T11:19:51.879Z,47.99
2022-08-01T11:20:51.866Z,47.5
2022-08-01T11:21:51.851Z,48.11
2022-08-01T11:22:51.841Z,47.89
2022-08-01T11:23:51.839Z,48.28
2022-08-01T11:24:51.816Z,48.38
2022-08-01T11:25:51.816Z,48.43
2022-08-01T11:26:51.806Z,49.53
2022-08-01T11:27:51.787Z,49.82
2022-08-01T11:28:51.770Z,50.37
2022-08-01T11:29:51.770Z,50.95
2022-08-01T11:30:51.766Z,51.27
2022-08-01T11:31:51.737Z,51.37
2022-08-01T11:32:51.752Z,52.14
2022-08-01T11:33:51.759Z,52.53
2022-08-01T11:34:52.582Z,52.43
2022-08-01T11:35:51.703Z,52.31
2022-08-01T11:36:51.687Z,52.62
2022-08-01T11:37:51.682Z,52.97
2022-08-01T11:38:51.671Z,52.97
2022-08-01T11:39:51.666Z,52.97
2022-08-01T11:40:51.655Z,53.09
2022-08-01T11:41:51.657Z,53.02
2022-08-01T11:42:51.623Z,53.61
2022-08-01T11:43:51.624Z,53.42
2022-08-01T11:44:51.736Z,53.49
2022-08-01T11:45:51.606Z,53.52
2022-08-01T11:46:51.582Z,53.91
2022-08-01T11:47:51.579Z,54.43
2022-08-01T11:48:51.565Z,54.5
2022-08-01T11:49:51.576Z,53.91
2022-08-01T11:50:51.540Z,54.23
2022-08-01T11:51:51.527Z,54.53
2022-08-01T11:52:51.545Z,54.95
2022-08-01T11:53:51.533Z,54.95
2022-08-01T11:54:51.520Z,54.65
2022-08-01T11:55:51.513Z,54.63
2022-08-01T11:56:51.484Z,54.36
2022-08-01T11:57:51.518Z,54.26
2022-08-01T11:58:51.457Z,54.13
2022-08-01T11:59:51.442Z,54.63
2022-08-01T12:00:51.467Z,54.23
2022-08-01T12:01:51.422Z,55.27
2022-08-01T12:02:51.419Z,56.29
2022-08-01T12:03:51.414Z,56.06
2022-08-01T12:04:51.393Z,55.83
2022-08-01T12:05:51.381Z,55.64
2022-08-01T12:06:51.398Z,55.22
2022-08-01T12:07:51.371Z,54.63
2022-08-01T12:08:51.348Z,54.3
2022-08-01T12:09:51.338Z,54.01
2022-08-01T12:10:51.360Z,53.91
2022-08-01T12:11:51.337Z,53.59
2022-08-01T12:12:51.312Z,53.17
2022-08-01T12:13:52.072Z,53.24
2022-08-01T12:14:51.284Z,52.03
2022-08-01T12:15:51.300Z,51.32
2022-08-01T12:16:51.279Z,50.59
2022-08-01T12:17:51.253Z,49.85
2022-08-01T12:18:51.242Z,48.65
2022-08-01T12:19:51.257Z,48.72
2022-08-01T12:20:51.216Z,48.01
2022-08-01T12:21:51.233Z,47.96
2022-08-01T12:22:51.218Z,49.38
2022-08-01T12:23:52.166Z,49.07
2022-08-01T12:24:51.182Z,49.36
2022-08-01T12:25:51.165Z,48.16
2022-08-01T12:26:51.157Z,47.96
2022-08-01T12:27:51.160Z,48.06
2022-08-01T12:28:51.146Z,48.16
2022-08-01T12:29:51.126Z,48.28
2022-08-01T12:30:51.119Z,49.95
2022-08-01T12:31:51.170Z,50.54
2022-08-01T12:32:51.094Z,50.63
2022-08-01T12:33:51.089Z,50.29
2022-08-01T12:34:51.074Z,49.46
2022-08-01T12:35:51.068Z,48.96
2022-08-01T12:36:51.054Z,48.74
2022-08-01T12:37:51.056Z,49.36
2022-08-01T12:38:51.032Z,49.46
2022-08-01T12:39:51.025Z,49.77
2022-08-01T12:40:51.030Z,49.77
2022-08-01T12:41:51.028Z,50.71
2022-08-01T12:42:51.000Z,50.12
2022-08-01T12:43:51.003Z,51.37
2022-08-01T12:44:50.969Z,52.28
2022-08-01T12:45:51.011Z,52.38
2022-08-01T12:46:50.973Z,52.16
2022-08-01T12:47:50.970Z,52.92
2022-08-01T12:48:50.924Z,53.22
2022-08-01T12:49:50.922Z,53.44
2022-08-01T12:50:51.519Z,53.42
2022-08-01T12:51:50.894Z,53.61
2022-08-01T12:52:50.883Z,53.96
2022-08-01T12:53:50.955Z,54.33
2022-08-01T12:54:50.866Z,54.43
2022-08-01T12:55:50.853Z,54.13
2022-08-01T12:56:50.871Z,54.03
2022-08-01T12:57:50.829Z,54.13